x

South Nomad (46036) Wave Buoy

7:00pm - Tue 25th Jul 2017 All times are UTC.

  • Sig Wave height 4.6ft
  • Peak Period 6s
  • Wind
    16mph, 20mph gusts
  • Sea Temp 57°f
  • Air Temp 58°f
  • Sea Pressure 1021.7mb

More Historic Weather Station data

Upgrade to MSW Pro to gain access to the past 30 days of data for over 8000 Wavebouys and Weather Stations around the globe.

Join Pro

Comparision Forecast

View Surf forecast
   
Tue 07/25 7:00pm 4.5ft 6s 16 20 mph 1021.7mb 57f 58f
6:00pm 4.5ft 6s 16 20 mph 1022mb 57f 57f
5:00pm 4.5ft  -  18 22 mph 1022.3mb 57f 57f
4:00pm 4ft 6s 16 18 mph 1022.4mb 57f 56f
3:00pm 4ft 5s 18 22 mph 1022.8mb 57f 56f
2:00pm 3.5ft 6s 16 18 mph 1022.8mb 58f 56f
1:00pm 4ft 6s 13 16 mph 1022.9mb 58f 56f
12:00pm 4ft 6s 13 16 mph 1023mb 58f 55f
11:00am 4.5ft 6s 13 16 mph 1023.2mb 57f 55f
10:00am 4.5ft 6s 11 16 mph 1023.5mb 57f 55f
9:00am 4.5ft 7s 13 16 mph 1023.9mb 57f 55f
8:00am 4.5ft 6s 13 16 mph 1024.1mb 57f 55f
7:00am 4.5ft 6s 11 16 mph 1024.3mb 57f 56f
6:00am 4.5ft 6s 13 16 mph 1024.5mb 57f 56f
5:00am 4.5ft 5s 13 16 mph 1024.7mb 57f 56f
4:00am 4.5ft 5s 16 18 mph 1024.5mb 58f 57f
3:00am 4.5ft 5s 16 18 mph 1024.6mb 58f 57f
2:00am 4.5ft 5s 16 20 mph 1024.4mb 58f 57f
1:00am 4ft 5s 18 22 mph 1024.4mb 58f 57f
12:00am 3.5ft 5s 18 20 mph 1024.5mb 58f 57f
Mon 07/24 11:00pm 3.5ft 4s 16 18 mph 1024.7mb 57f 58f
10:00pm 3.5ft 8s 13 16 mph 1024.6mb 58f 58f
9:00pm 3.5ft  -  13 18 mph 1024.6mb 58f 57f
8:00pm 3.5ft 14s 13 18 mph 1024.6mb 58f 57f
7:00pm 3.5ft 8s 16 18 mph 1024.8mb 58f 57f
6:00pm 3.5ft 8s 13 18 mph 1024.8mb 58f 57f
5:00pm 3ft 9s 13 16 mph 1024.9mb 58f 57f
4:00pm 3.5ft 8s 11 13 mph 1025.1mb 57f 58f
3:00pm 3ft 8s 11 13 mph 1025.1mb 58f 58f
2:00pm 3.5ft 7s 11 13 mph 1025.1mb 58f 58f
1:00pm 3.5ft 7s 9 11 mph 1024.8mb 58f 58f
12:00pm 3.5ft 8s 9 11 mph 1024.9mb 58f 58f
11:00am 3.5ft 7s 9 11 mph 1025.5mb 58f 58f
10:00am 3.5ft 7s 11 13 mph 1025.7mb 59f 58f
9:00am 3.5ft 7s 11 11 mph 1026mb 59f 58f
8:00am 3.5ft 8s 7 9 mph 1026.6mb 59f 58f
7:00am 3.5ft 8s 9 11 mph 1026.8mb 59f 58f
6:00am 3.5ft 8s 9 11 mph 1027mb 59f 58f
5:00am 3.5ft 8s 7 9 mph 1027.3mb 60f 59f
4:00am 4ft 8s 7 7 mph 1027.5mb 60f 59f
3:00am 3.5ft 9s 2 4 mph 1027.8mb 59f 59f
2:00am 3.5ft 8s 4 4 mph 1027.9mb 58f 59f
1:00am 4ft 8s 4 7 mph 1027.8mb 58f 59f
12:00am 4.5ft 8s 4 7 mph 1028.1mb 60f 59f
Sun 07/23 11:00pm 4.5ft 8s 4 7 mph 1028.1mb 60f 58f
10:00pm 4.5ft 8s 4 7 mph 1028.3mb 59f 58f
9:00pm 4.5ft 7s 4 7 mph 1028mb 58f 58f
8:00pm 5ft 7s 4 4 mph 1027.9mb 58f 58f
7:00pm 5ft 8s 4 7 mph 1027.9mb 58f 58f
6:00pm 5ft 8s 4 4 mph 1027.6mb 57f 57f
5:00pm 5ft 7s 4 7 mph 1027.3mb 57f 57f
4:00pm 4.5ft 8s 4 7 mph 1027.1mb 57f 57f
3:00pm 4.5ft 8s 4 7 mph 1026.8mb 57f 57f
2:00pm 4.5ft 8s 7 9 mph 1026.5mb 57f 56f
1:00pm 4.5ft 8s 9 9 mph 1025.9mb 57f 56f
12:00pm 4.5ft 8s 7 9 mph 1025.7mb 57f 56f
11:00am 4.5ft 8s 9 9 mph 1025.5mb 57f 56f
10:00am 4.5ft 8s 7 9 mph 1025.3mb 57f 56f
9:00am 5ft 8s 7 9 mph 1025.1mb 57f 56f
8:00am 5ft 8s 7 9 mph 1025mb 57f 56f
7:00am 5ft 8s 7 7 mph 1024.8mb 57f 56f
6:00am 5.5ft 8s 4 7 mph 1024.6mb 57f 57f
5:00am 5.5ft 8s 4 4 mph 1024.5mb 57f 57f
4:00am 5.5ft 8s 4 4 mph 1023.8mb 57f 58f
3:00am 6ft 7s 4 4 mph 1023.9mb 57f 57f
2:00am 5ft 8s 7 9 mph 1023.6mb 57f 58f
1:00am 5.5ft 8s 9 9 mph 1023.5mb 57f 58f
12:00am 5.5ft 7s 9 11 mph 1023.4mb 57f 58f
Sat 07/22 11:00pm 5ft 7s 11 13 mph 1023mb 57f 58f
10:00pm 5ft 7s 11 13 mph 1022.6mb 57f 58f
9:00pm 5ft 8s 11 13 mph 1022.5mb 57f 57f
8:00pm 5.5ft 8s 11 13 mph 1022.1mb 57f 57f
7:00pm 5.5ft 7s 11 13 mph 1021.6mb 56f 57f
6:00pm 5.5ft 8s 13 16 mph 1020.8mb 56f 57f
5:00pm 6ft 7s 13 18 mph 1020.4mb 56f 57f
4:00pm 6ft 7s 11 16 mph 1019.8mb 56f 57f
3:00pm 6ft 8s 13 16 mph 1019.3mb 56f 56f
2:00pm 6ft 8s 13 16 mph 1018.7mb 56f 56f
1:00pm 6ft 8s 13 18 mph 1017.8mb 56f 56f
12:00pm 6ft 7s 13 18 mph 1017.2mb 56f 56f
11:00am 6ft 7s 13 16 mph 1016.9mb 56f 56f
10:00am 5.5ft 8s 16 18 mph 1016.4mb 56f 57f
9:00am 5.5ft 6s 13 16 mph 1016.1mb 56f 57f
8:00am 5.5ft 7s 16 20 mph 1015.6mb 56f 57f
7:00am 5.5ft 8s 16 18 mph 1015.1mb 56f 57f
6:00am 5.5ft 7s 13 18 mph 1014.7mb 56f 57f
5:00am 5.5ft 8s 18 20 mph 1013.8mb 56f 57f
4:00am 5ft 6s 16 20 mph 1013.2mb 57f 57f
3:00am 5ft 8s 18 20 mph 1012.7mb 57f 57f
2:00am 6ft 7s 16 18 mph 1012.3mb 57f 57f
1:00am 5.5ft 7s 16 18 mph 1011.9mb 56f 57f
12:00am 5ft 7s 16 20 mph 1011.4mb 56f 57f
Fri 07/21 11:00pm 5ft 7s 16 20 mph 1010.9mb 56f 57f
10:00pm 5ft 7s 16 20 mph 1010.5mb 56f 57f
9:00pm 5ft 7s 18 25 mph 1010.1mb 56f 57f